Time;durP1;ratioP1;P1;durP2;ratioP2;P2;SDS_P1;SDS_P2;PMS_P1;PMS_P2;Temp;Humidity;BMP_temperature;BMP_pressure;BME280_temperature;BME280_humidity;BME280_pressure;Samples;Min_cycle;Max_cycle;Signal;HPM_P1;HPM_P2
2022/03/02 00:01:12;;;;;;;15.55;5.40;;;;;;;6.40;78.99;101702.94;5048057;28;20057;-56
2022/03/02 00:03:39;;;;;;;16.15;5.38;;;;;;;6.43;78.88;101696.84;5046201;28;20301;-52
2022/03/02 00:06:06;;;;;;;18.40;6.30;;;;;;;6.41;79.38;101688.03;5044407;28;20142;-50
2022/03/02 00:08:33;;;;;;;23.92;5.70;;;;;;;6.39;79.59;101679.28;5047597;28;20060;-51
2022/03/02 00:11:00;;;;;;;17.95;5.95;;;;;;;6.40;79.52;101671.84;5043897;28;20446;-53
2022/03/02 00:13:27;;;;;;;17.65;5.32;;;;;;;6.38;79.51;101679.59;5045284;28;20044;-54
2022/03/02 00:15:57;;;;;;;21.30;6.45;;;;;;;6.38;79.26;101677.63;5046884;28;20130;-50
2022/03/02 00:18:24;;;;;;;20.70;5.97;;;;;;;6.38;79.50;101672.13;5045727;28;20059;-51
2022/03/02 00:20:51;;;;;;;17.52;5.30;;;;;;;6.35;79.92;101664.50;5047075;28;20647;-53
2022/03/02 00:23:17;;;;;;;15.93;5.95;;;;;;;6.35;79.91;101659.00;5048257;28;20043;-51
2022/03/02 00:25:44;;;;;;;18.77;5.40;;;;;;;6.34;79.67;101651.84;5044771;28;20048;-57
2022/03/02 00:28:17;;;;;;;23.38;6.70;;;;;;;6.37;79.85;101655.94;5043866;28;20053;-55
2022/03/02 00:30:44;;;;;;;18.95;5.55;;;;;;;6.36;79.90;101641.38;5046709;28;20679;-56
2022/03/02 00:33:12;;;;;;;16.65;6.30;;;;;;;6.34;80.13;101637.28;5042122;28;20092;-51
2022/03/02 00:35:39;;;;;;;17.88;5.68;;;;;;;6.35;80.05;101650.75;5043144;28;20060;-52
2022/03/02 00:38:10;;;;;;;18.30;5.70;;;;;;;6.37;80.01;101632.00;5042688;28;20456;-49
2022/03/02 00:40:38;;;;;;;16.80;5.38;;;;;;;6.37;80.17;101631.19;5045259;28;20049;-56
2022/03/02 00:43:07;;;;;;;24.30;7.35;;;;;;;6.38;80.24;101638.34;5043738;28;20045;-53
2022/03/02 00:45:34;;;;;;;16.27;5.45;;;;;;;6.37;80.27;101625.69;5042236;28;20048;-50
2022/03/02 00:48:04;;;;;;;19.15;6.30;;;;;;;6.37;80.36;101636.69;5043184;28;20117;-56
2022/03/02 00:50:31;;;;;;;18.48;6.35;;;;;;;6.39;80.11;101635.28;5046985;28;20045;-50
2022/03/02 00:52:59;;;;;;;25.35;6.25;;;;;;;6.39;80.53;101617.94;5046544;28;20051;-53
2022/03/02 00:55:26;;;;;;;16.73;5.13;;;;;;;6.38;80.30;101622.63;5045990;28;20119;-52
2022/03/02 00:57:53;;;;;;;19.33;6.35;;;;;;;6.39;80.57;101617.94;5049518;28;20520;-55
2022/03/02 01:00:20;;;;;;;16.23;6.95;;;;;;;6.39;80.54;101607.78;5045436;28;20041;-50
2022/03/02 01:02:47;;;;;;;22.75;6.82;;;;;;;6.39;80.58;101594.03;5046038;28;20580;-50
2022/03/02 01:05:14;;;;;;;23.27;6.07;;;;;;;6.39;80.43;101594.03;5046678;28;20414;-55
2022/03/02 01:07:41;;;;;;;15.90;5.55;;;;;;;6.39;80.58;101579.44;5062455;28;20075;-53
2022/03/02 01:10:08;;;;;;;18.40;6.05;;;;;;;6.40;80.67;101573.66;5045834;28;20049;-54
2022/03/02 01:12:35;;;;;;;25.50;7.28;;;;;;;6.40;80.74;101559.09;5062623;28;20081;-57
2022/03/02 01:15:04;;;;;;;15.80;6.10;;;;;;;6.38;80.47;101531.06;5044714;28;20121;-52
2022/03/02 01:17:31;;;;;;;14.70;5.57;;;;;;;6.38;80.79;101544.81;5027256;28;20051;-53
2022/03/02 01:19:59;;;;;;;18.50;6.20;;;;;;;6.34;80.56;101541.84;5043102;28;20045;-59
2022/03/02 01:22:27;;;;;;;16.73;5.28;;;;;;;6.27;81.58;101529.59;5043540;28;20560;-57
2022/03/02 01:24:55;;;;;;;21.42;5.47;;;;;;;6.18;82.10;101537.66;5043448;28;20131;-57
2022/03/02 01:27:22;;;;;;;19.23;6.85;;;;;;;6.13;81.89;101522.06;5049758;28;20052;-50
2022/03/02 01:29:51;;;;;;;28.30;7.80;;;;;;;6.09;82.73;101514.69;5045292;28;20045;-50
2022/03/02 01:32:18;;;;;;;17.00;5.53;;;;;;;6.05;82.81;101521.91;5046521;28;20048;-50
2022/03/02 01:34:46;;;;;;;24.65;6.75;;;;;;;6.03;82.49;101521.41;5046301;28;20171;-51
2022/03/02 01:37:13;;;;;;;21.67;6.10;;;;;;;6.01;82.84;101507.16;5047150;28;21017;-51
2022/03/02 01:39:40;;;;;;;20.38;5.07;;;;;;;6.00;82.73;101516.50;5046658;28;20045;-53
2022/03/02 01:42:07;;;;;;;16.05;5.32;;;;;;;6.01;82.83;101496.16;5049262;28;21078;-55
2022/03/02 01:44:36;;;;;;;20.25;6.32;;;;;;;5.97;82.91;101495.09;5047067;28;21032;-51
2022/03/02 01:47:05;;;;;;;20.95;5.85;;;;;;;5.94;83.10;101490.19;5062050;28;20087;-54
2022/03/02 01:49:32;;;;;;;19.02;6.05;;;;;;;5.94;82.85;101498.44;5045274;28;20094;-55
2022/03/02 01:52:00;;;;;;;19.00;5.22;;;;;;;5.91;83.15;101480.59;5048943;28;20049;-52
2022/03/02 01:54:26;;;;;;;20.50;5.60;;;;;;;5.91;83.13;101479.78;5047823;28;20037;-53
2022/03/02 01:56:53;;;;;;;19.23;5.57;;;;;;;5.88;83.27;101480.38;5047764;28;20052;-58
2022/03/02 01:59:20;;;;;;;22.42;7.30;;;;;;;5.87;83.36;101476.81;5048153;28;20064;-52
2022/03/02 02:01:48;;;;;;;18.15;6.10;;;;;;;5.85;83.41;101468.03;5062043;28;20120;-53
2022/03/02 02:04:16;;;;;;;18.30;5.88;;;;;;;5.84;83.88;101468.31;5045317;28;20048;-50
2022/03/02 02:06:43;;;;;;;12.05;5.57;;;;;;;5.84;83.57;101460.06;5047508;28;20036;-55
2022/03/02 02:09:11;;;;;;;27.23;6.63;;;;;;;5.84;83.50;101462.81;5046832;28;20136;-53
2022/03/02 02:11:38;;;;;;;18.52;6.18;;;;;;;5.82;83.89;101462.31;5046587;28;20413;-55
2022/03/02 02:14:05;;;;;;;15.68;6.05;;;;;;;5.83;83.76;101452.94;5047526;28;20460;-50
2022/03/02 02:16:32;;;;;;;18.83;5.40;;;;;;;5.84;83.10;101446.34;5048496;28;20041;-51
2022/03/02 02:18:59;;;;;;;19.67;5.32;;;;;;;5.82;83.75;101452.13;5063589;28;20068;-53
2022/03/02 02:21:28;;;;;;;23.55;5.35;;;;;;;5.85;84.06;101437.03;5048188;28;20068;-50
2022/03/02 02:23:55;;;;;;;15.40;5.07;;;;;;;5.88;83.96;101430.91;5047515;28;20516;-52
2022/03/02 02:26:22;;;;;;;24.70;6.05;;;;;;;5.89;84.23;101427.06;5045093;28;20057;-51
2022/03/02 02:28:50;;;;;;;20.15;5.70;;;;;;;5.91;84.13;101416.56;5049195;28;20053;-56
2022/03/02 02:31:17;;;;;;;18.52;5.20;;;;;;;5.93;84.22;101412.41;5046940;28;20044;-55
2022/03/02 02:33:44;;;;;;;19.70;5.13;;;;;;;5.96;84.63;101406.31;5044191;28;21353;-54
2022/03/02 02:36:12;;;;;;;13.45;4.70;;;;;;;5.99;84.96;101404.91;5045283;28;20044;-53
2022/03/02 02:38:39;;;;;;;19.20;5.15;;;;;;;6.01;84.86;101389.75;5044003;28;20047;-51
2022/03/02 02:41:06;;;;;;;20.40;5.65;;;;;;;6.08;84.58;101394.88;5045185;28;20106;-50
2022/03/02 02:43:33;;;;;;;15.85;5.25;;;;;;;6.10;84.70;101389.91;5044251;28;20371;-57
2022/03/02 02:46:00;;;;;;;14.73;6.10;;;;;;;6.11;84.91;101392.34;5045231;28;20075;-57
2022/03/02 02:48:27;;;;;;;19.05;4.88;;;;;;;6.14;84.68;101388.19;5046854;28;20053;-57
2022/03/02 02:50:54;;;;;;;21.55;5.18;;;;;;;6.15;84.93;101384.31;5047833;28;21437;-53
2022/03/02 02:53:21;;;;;;;18.17;4.93;;;;;;;6.16;84.61;101382.38;5057071;28;20734;-53
2022/03/02 02:55:50;;;;;;;17.25;5.18;;;;;;;6.18;84.65;101378.22;5046014;28;20040;-53
2022/03/02 02:58:17;;;;;;;16.48;5.22;;;;;;;6.18;84.73;101378.22;5045620;28;20049;-56
2022/03/02 03:01:42;;;;;;;12.70;4.50;;;;;;;6.17;85.22;101368.31;5123719;22;20027;-51
2022/03/02 03:04:10;;;;;;;17.38;5.38;;;;;;;6.20;84.83;101367.72;4971987;23;20407;-50
2022/03/02 03:06:36;;;;;;;12.82;4.25;;;;;;;6.20;84.77;101367.72;4998719;28;20196;-53
2022/03/02 03:09:04;;;;;;;19.63;5.68;;;;;;;6.22;84.69;101361.94;4997882;28;20124;-52
2022/03/02 03:11:32;;;;;;;15.55;4.40;;;;;;;6.25;84.70;101355.84;5000467;28;20050;-54
2022/03/02 03:14:06;;;;;;;13.60;4.65;;;;;;;6.25;84.94;101353.88;5000185;28;20042;-57
2022/03/02 03:16:33;;;;;;;16.48;4.07;;;;;;;6.26;85.42;101349.22;5000482;28;20053;-52
2022/03/02 03:19:00;;;;;;;20.05;6.22;;;;;;;6.27;85.24;101343.44;4997435;28;20597;-57
2022/03/02 03:21:27;;;;;;;21.77;6.10;;;;;;;6.28;85.28;101342.28;4999892;28;20407;-50
2022/03/02 03:23:54;;;;;;;21.40;4.97;;;;;;;6.30;85.22;101342.00;4994076;28;20050;-55
2022/03/02 03:26:21;;;;;;;16.95;5.18;;;;;;;6.32;85.38;101334.25;5000963;28;20093;-53
2022/03/02 03:28:48;;;;;;;20.35;7.00;;;;;;;6.33;85.74;101339.44;4997513;28;20073;-52
2022/03/02 03:31:15;;;;;;;10.90;3.95;;;;;;;6.37;85.06;101335.00;4998872;28;20144;-58
2022/03/02 03:33:42;;;;;;;13.90;3.92;;;;;;;6.37;85.48;101324.00;4998575;28;20042;-56
2022/03/02 03:36:09;;;;;;;14.32;4.47;;;;;;;6.38;85.40;101325.59;4996901;28;20119;-53
2022/03/02 03:38:36;;;;;;;13.73;4.82;;;;;;;6.38;85.41;101331.09;4997541;28;20487;-53
2022/03/02 03:41:03;;;;;;;17.05;4.80;;;;;;;6.37;85.52;101324.00;4999943;28;20037;-50
2022/03/02 03:43:30;;;;;;;19.92;5.28;;;;;;;6.37;85.49;101320.41;4998148;28;21004;-56
2022/03/02 03:45:57;;;;;;;20.85;4.70;;;;;;;6.37;86.06;101324.00;4998221;28;21886;-55
2022/03/02 03:48:24;;;;;;;18.85;5.18;;;;;;;6.38;85.72;101311.06;4981199;28;20044;-55
2022/03/02 03:50:51;;;;;;;13.18;4.47;;;;;;;6.38;85.88;101306.34;4997953;28;20502;-56
2022/03/02 03:53:18;;;;;;;18.27;5.40;;;;;;;6.41;85.77;101299.44;4999477;28;20033;-52
2022/03/02 03:55:45;;;;;;;21.63;4.18;;;;;;;6.43;85.71;101303.53;4999388;28;20099;-50
2022/03/02 03:58:11;;;;;;;19.58;4.45;;;;;;;6.45;85.63;101304.03;4998630;28;20509;-50
2022/03/02 04:00:38;;;;;;;14.68;6.18;;;;;;;6.44;85.78;101296.91;4998452;28;20483;-51
2022/03/02 04:03:06;;;;;;;27.00;5.00;;;;;;;6.46;86.21;101294.66;5000080;28;20062;-58
2022/03/02 04:05:33;;;;;;;10.10;3.70;;;;;;;6.46;86.41;101291.91;4998948;28;20046;-50
2022/03/02 04:08:00;;;;;;;18.88;6.85;;;;;;;6.47;86.27;101282.53;4999360;28;20042;-53
2022/03/02 04:10:27;;;;;;;20.63;4.82;;;;;;;6.48;86.29;101284.19;4999966;28;20414;-51
2022/03/02 04:12:53;;;;;;;22.15;4.40;;;;;;;6.48;86.47;101289.69;5000947;28;20053;-50
2022/03/02 04:15:20;;;;;;;19.02;4.03;;;;;;;6.50;86.54;101279.19;4997897;28;20494;-54
2022/03/02 04:17:48;;;;;;;14.18;4.10;;;;;;;6.50;86.50;101273.69;4998611;28;20432;-50
2022/03/02 04:20:14;;;;;;;16.33;5.07;;;;;;;6.51;86.63;101271.75;4997634;28;20126;-50
2022/03/02 04:22:41;;;;;;;22.33;5.30;;;;;;;6.53;86.35;101273.06;4999441;28;20770;-52
2022/03/02 04:25:10;;;;;;;16.27;4.15;;;;;;;6.53;86.41;101272.25;4998750;28;20132;-51
2022/03/02 04:27:37;;;;;;;18.75;4.28;;;;;;;6.52;86.54;101262.34;4999230;28;20406;-54
2022/03/02 04:30:05;;;;;;;11.93;4.55;;;;;;;6.53;86.24;101266.75;4997373;28;20049;-55
2022/03/02 04:32:32;;;;;;;18.05;5.00;;;;;;;6.53;86.28;101256.56;4998852;28;20211;-52
2022/03/02 04:34:59;;;;;;;13.82;4.07;;;;;;;6.54;86.33;101260.94;4996481;28;20050;-51
2022/03/02 04:37:26;;;;;;;17.67;4.78;;;;;;;6.55;86.63;101257.06;4996147;28;20128;-50
2022/03/02 04:39:53;;;;;;;15.48;5.28;;;;;;;6.55;86.85;101257.06;4999206;28;20037;-54
2022/03/02 04:42:19;;;;;;;17.83;6.25;;;;;;;6.57;86.74;101246.56;4997905;28;20046;-54
2022/03/02 04:44:46;;;;;;;13.35;3.72;;;;;;;6.57;86.79;101246.56;4996382;28;20092;-50
2022/03/02 04:47:13;;;;;;;10.68;3.78;;;;;;;6.57;87.27;101241.06;4996519;28;20108;-54
2022/03/02 04:49:41;;;;;;;17.63;3.33;;;;;;;6.59;87.34;101249.03;4995972;28;20077;-55
2022/03/02 04:52:08;;;;;;;9.77;2.90;;;;;;;6.60;87.28;101245.97;4997784;28;20038;-51
2022/03/02 04:57:20;;;;;;;13.82;3.55;;;;;;;6.61;88.23;101238.53;4998886;28;20045;-59
2022/03/02 04:59:47;;;;;;;15.18;3.22;;;;;;;6.61;88.15;101241.28;5000313;28;20434;-50
2022/03/02 05:02:14;;;;;;;13.80;3.33;;;;;;;6.61;88.05;101236.59;5001031;28;20141;-52
2022/03/02 05:04:41;;;;;;;16.73;4.28;;;;;;;6.62;88.01;101243.72;5000551;28;20034;-50
2022/03/02 05:07:08;;;;;;;12.13;3.10;;;;;;;6.62;88.09;101229.97;5000731;28;20042;-55
2022/03/02 05:09:35;;;;;;;10.77;2.83;;;;;;;6.60;88.88;101229.47;5002120;28;20053;-54
2022/03/02 05:12:05;;;;;;;9.68;2.97;;;;;;;6.61;88.38;101228.34;4999545;28;20054;-54
2022/03/02 05:14:32;;;;;;;23.75;4.35;;;;;;;6.60;89.25;101228.63;4999570;28;20121;-53
2022/03/02 05:16:58;;;;;;;15.88;3.22;;;;;;;6.59;89.05;101222.31;4967102;28;20038;-54
2022/03/02 05:19:26;;;;;;;11.23;3.28;;;;;;;6.59;88.88;101224.28;5001970;28;20083;-54
2022/03/02 05:21:52;;;;;;;8.48;3.10;;;;;;;6.58;88.95;101220.69;4998694;28;20053;-53
2022/03/02 05:24:19;;;;;;;15.20;3.45;;;;;;;6.58;89.01;101219.88;5000681;28;20069;-57
2022/03/02 05:26:46;;;;;;;12.13;3.92;;;;;;;6.59;89.14;101224.28;5000640;28;20056;-52
2022/03/02 05:29:14;;;;;;;10.43;2.45;;;;;;;6.57;89.29;101216.31;5001041;28;20061;-52
2022/03/02 05:31:41;;;;;;;10.70;2.95;;;;;;;6.57;89.46;101208.06;4998668;28;20045;-55
2022/03/02 05:34:08;;;;;;;12.75;3.78;;;;;;;6.60;88.99;101218.44;4999397;28;20070;-52
2022/03/02 05:36:35;;;;;;;9.82;3.30;;;;;;;6.61;89.16;101213.78;4999845;28;20161;-55
2022/03/02 05:39:02;;;;;;;11.32;3.63;;;;;;;6.62;88.77;101213.44;5000648;28;20050;-57
2022/03/02 05:41:29;;;;;;;17.20;3.83;;;;;;;6.63;88.92;101206.84;5001779;28;20507;-54
2022/03/02 05:43:56;;;;;;;12.05;2.88;;;;;;;6.63;89.31;101204.09;4998736;28;20046;-57
2022/03/02 05:46:22;;;;;;;11.77;4.10;;;;;;;6.63;89.38;101206.84;5000525;28;20052;-59
2022/03/02 05:48:52;;;;;;;16.13;4.18;;;;;;;6.62;89.79;101199.69;4995892;28;20077;-58
2022/03/02 05:51:20;;;;;;;13.55;3.30;;;;;;;6.60;89.93;101193.69;5001483;28;20466;-60
2022/03/02 05:53:46;;;;;;;7.07;3.28;;;;;;;6.57;90.53;101202.56;4999734;28;20291;-54
2022/03/02 05:56:13;;;;;;;8.60;2.22;;;;;;;6.54;90.91;101186.66;5001153;28;20107;-57
2022/03/02 05:58:40;;;;;;;11.60;2.70;;;;;;;6.52;91.01;101177.91;5001506;28;20550;-58
2022/03/02 06:01:07;;;;;;;14.35;3.05;;;;;;;6.50;91.49;101174.66;4997796;28;20069;-58
2022/03/02 06:03:34;;;;;;;11.07;2.60;;;;;;;6.49;91.28;101163.94;4998169;28;20089;-59
2022/03/02 06:06:02;;;;;;;14.90;3.35;;;;;;;6.45;91.99;101157.44;4981019;28;20406;-56
2022/03/02 06:08:29;;;;;;;9.02;2.58;;;;;;;6.44;91.92;101164.06;5000181;28;20422;-54
2022/03/02 06:10:56;;;;;;;17.33;4.65;;;;;;;6.41;92.46;101142.66;4997680;28;20560;-59
2022/03/02 06:13:23;;;;;;;11.95;2.95;;;;;;;6.39;92.76;101162.25;5000387;28;20136;-58
2022/03/02 06:15:51;;;;;;;9.43;2.50;;;;;;;6.37;92.95;101164.50;4979586;28;20631;-57
2022/03/02 06:18:18;;;;;;;13.15;3.83;;;;;;;6.37;92.59;101160.91;5000351;28;20060;-60
2022/03/02 06:20:50;;;;;;;11.75;2.83;;;;;;;6.34;93.34;101162.34;5000030;28;20396;-59
2022/03/02 06:23:18;;;;;;;9.82;2.85;;;;;;;6.36;93.06;101164.78;4998754;28;20046;-57
2022/03/02 06:25:45;;;;;;;8.27;2.88;;;;;;;6.34;93.03;101148.59;5000802;28;20388;-56
2022/03/02 06:28:12;;;;;;;11.60;3.15;;;;;;;6.33;92.77;101149.72;5001082;28;20068;-56
2022/03/02 06:30:39;;;;;;;15.65;2.90;;;;;;;6.33;92.46;101141.47;4998470;28;20046;-57
2022/03/02 06:33:09;;;;;;;7.32;2.78;;;;;;;6.32;93.00;101139.84;4999180;28;20395;-57
2022/03/02 06:35:36;;;;;;;8.18;2.88;;;;;;;6.32;93.54;101134.34;4998094;28;20128;-56
2022/03/02 06:38:03;;;;;;;12.02;3.47;;;;;;;6.32;93.69;101133.53;4997317;28;20108;-58
2022/03/02 06:40:30;;;;;;;12.18;3.38;;;;;;;6.33;93.89;101124.16;4999656;28;20572;-55
2022/03/02 06:43:05;;;;;;;10.52;2.83;;;;;;;6.33;93.43;101130.47;4998789;28;20053;-57
2022/03/02 06:45:43;;;;;;;11.45;3.88;;;;;;;6.34;93.86;101123.84;4996722;28;20050;-58
2022/03/02 06:48:16;;;;;;;11.07;3.25;;;;;;;6.35;93.68;101132.91;4982317;28;20049;-52
2022/03/02 06:50:46;;;;;;;12.70;2.67;;;;;;;6.38;93.79;101129.56;4998565;28;20042;-53
2022/03/02 06:53:15;;;;;;;15.27;3.65;;;;;;;6.38;93.54;101119.34;5000964;28;20048;-54
2022/03/02 06:55:44;;;;;;;20.08;3.28;;;;;;;6.40;93.36;101113.56;4998965;28;20136;-57
2022/03/02 06:58:12;;;;;;;14.52;3.50;;;;;;;6.39;94.01;101112.75;4997693;28;20404;-54
2022/03/02 07:00:39;;;;;;;16.05;5.22;;;;;;;6.40;94.35;101119.06;4998075;28;20041;-56
2022/03/02 07:03:11;;;;;;;13.02;3.95;;;;;;;6.41;94.44;101109.66;4999929;28;20061;-54
2022/03/02 07:05:39;;;;;;;17.70;4.45;;;;;;;6.42;94.28;101120.38;4998358;28;20045;-57
2022/03/02 07:08:08;;;;;;;13.10;3.40;;;;;;;6.44;94.19;101120.88;4997888;28;20534;-55
2022/03/02 07:10:36;;;;;;;13.25;2.58;;;;;;;6.45;94.77;101117.00;4982608;28;20073;-53
2022/03/02 07:13:06;;;;;;;18.13;4.05;;;;;;;6.46;94.30;101113.13;4999420;28;20060;-57
2022/03/02 07:15:35;;;;;;;12.10;2.40;;;;;;;6.47;94.79;101113.94;4996303;28;20468;-55
2022/03/02 07:18:03;;;;;;;9.27;3.03;;;;;;;6.47;94.45;101114.75;4999257;28;20038;-52
2022/03/02 07:20:31;;;;;;;13.57;2.70;;;;;;;6.47;95.33;101114.75;4997738;28;20056;-54
2022/03/02 07:23:01;;;;;;;6.22;2.30;;;;;;;6.46;94.83;101104.88;4998578;28;20073;-56
2022/03/02 07:25:33;;;;;;;15.05;3.25;;;;;;;6.48;95.05;101105.41;4998027;28;20041;-57
2022/03/02 07:28:01;;;;;;;9.27;3.00;;;;;;;6.49;94.74;101106.19;4998540;28;20131;-53
2022/03/02 07:30:28;;;;;;;13.40;2.03;;;;;;;6.49;95.06;101089.69;5000005;28;20046;-54
2022/03/02 07:32:59;;;;;;;6.22;2.10;;;;;;;6.49;94.78;101096.00;4998064;28;20069;-57
2022/03/02 07:35:35;;;;;;;11.23;1.73;;;;;;;6.47;94.86;101095.50;4999649;28;20054;-52
2022/03/02 07:38:07;;;;;;;8.13;2.03;;;;;;;6.45;94.75;101096.94;4999694;28;20058;-54
2022/03/02 07:40:35;;;;;;;7.10;1.50;;;;;;;6.44;95.47;101093.38;4999017;28;20045;-54
2022/03/02 07:43:02;;;;;;;6.90;1.90;;;;;;;6.43;95.45;101086.25;4998792;28;20049;-53
2022/03/02 07:45:30;;;;;;;6.68;2.60;;;;;;;6.44;95.02;101087.88;4997875;28;20045;-55
2022/03/02 07:47:58;;;;;;;18.83;4.30;;;;;;;6.44;95.44;101079.63;4993403;28;20052;-55
2022/03/02 07:50:25;;;;;;;6.85;2.30;;;;;;;6.46;95.31;101079.34;4998019;28;20068;-52
2022/03/02 07:52:52;;;;;;;7.30;2.05;;;;;;;6.47;95.45;101086.44;4999991;28;20302;-55
2022/03/02 07:55:20;;;;;;;7.32;2.67;;;;;;;6.46;95.47;101080.13;4999977;28;20676;-54
2022/03/02 07:57:55;;;;;;;7.47;2.70;;;;;;;6.47;95.54;101075.44;5000655;28;20123;-59
2022/03/02 08:00:23;;;;;;;4.70;1.23;;;;;;;6.48;95.54;101072.41;4997282;28;20664;-54
2022/03/02 08:02:53;;;;;;;11.35;2.20;;;;;;;6.47;95.74;101070.75;4998585;28;20127;-54
2022/03/02 08:05:22;;;;;;;3.38;1.00;;;;;;;6.48;95.50;101069.66;4996410;28;20561;-54
2022/03/02 08:07:49;;;;;;;6.35;2.28;;;;;;;6.49;95.37;101063.00;4995036;28;20057;-53
2022/03/02 08:10:17;;;;;;;14.48;2.15;;;;;;;6.52;95.51;101064.31;4996688;28;20108;-53
2022/03/02 08:12:45;;;;;;;7.18;1.63;;;;;;;6.53;95.71;101064.03;5014237;28;20052;-55
2022/03/02 08:15:12;;;;;;;6.20;1.60;;;;;;;6.53;95.83;101055.78;4996144;28;20058;-56
2022/03/02 08:17:39;;;;;;;5.53;1.60;;;;;;;6.56;96.06;101044.16;4995213;28;20175;-56
2022/03/02 08:20:07;;;;;;;5.15;2.22;;;;;;;6.58;96.07;101036.41;4998175;28;20573;-53
2022/03/02 08:22:44;;;;;;;7.07;2.15;;;;;;;6.60;95.89;101025.88;4996434;28;20617;-52
2022/03/02 08:25:12;;;;;;;7.00;1.88;;;;;;;6.62;95.74;101034.63;5012304;28;20518;-53
2022/03/02 08:27:41;;;;;;;9.65;2.42;;;;;;;6.64;95.89;101032.41;4994164;28;20144;-55
2022/03/02 08:30:10;;;;;;;6.18;1.60;;;;;;;6.67;95.83;101026.25;4987313;28;20069;-55
2022/03/02 08:32:45;;;;;;;13.05;2.08;;;;;;;6.69;96.15;101024.03;4992458;28;20045;-52
2022/03/02 08:35:13;;;;;;;9.73;1.65;;;;;;;6.70;96.21;101020.13;4991227;28;20570;-56
2022/03/02 08:37:40;;;;;;;5.35;1.05;;;;;;;6.73;95.91;101010.44;4991990;28;20472;-54
2022/03/02 08:40:09;;;;;;;4.90;1.50;;;;;;;6.76;96.06;101023.56;4992952;28;20084;-57
2022/03/02 08:42:37;;;;;;;6.85;1.38;;;;;;;6.79;96.33;101024.88;4995121;28;20446;-52
2022/03/02 08:45:05;;;;;;;6.07;1.40;;;;;;;6.82;95.84;101016.81;4993034;28;20601;-53
2022/03/02 08:47:33;;;;;;;4.07;1.35;;;;;;;6.84;96.29;101016.50;4992379;28;21821;-51
2022/03/02 08:50:00;;;;;;;9.80;2.15;;;;;;;6.88;95.92;101018.34;4993079;28;20507;-56
2022/03/02 08:52:31;;;;;;;12.43;2.03;;;;;;;6.91;95.80;101014.94;4993348;28;20050;-61
2022/03/02 08:55:01;;;;;;;8.60;2.58;;;;;;;6.94;96.04;101010.72;4994180;28;20050;-58
2022/03/02 08:57:31;;;;;;;9.10;1.60;;;;;;;6.93;96.06;101011.88;4992769;28;20046;-57
2022/03/02 08:59:59;;;;;;;8.20;2.28;;;;;;;6.92;95.87;101015.75;4993015;28;20506;-58
2022/03/02 09:02:29;;;;;;;6.75;2.80;;;;;;;6.94;95.60;101024.50;4993049;28;20132;-59
2022/03/02 09:05:03;;;;;;;12.57;3.15;;;;;;;6.94;95.93;101019.00;5012353;28;20049;-63
2022/03/02 09:07:30;;;;;;;16.23;3.95;;;;;;;6.94;96.22;101024.50;5013369;28;21680;-60
2022/03/02 09:09:59;;;;;;;6.32;1.80;;;;;;;6.93;95.83;101018.19;5013391;28;20057;-56
2022/03/02 09:12:27;;;;;;;4.68;2.13;;;;;;;6.93;95.76;101011.88;5014072;28;20048;-58
2022/03/02 09:14:56;;;;;;;9.70;3.10;;;;;;;6.93;95.76;101007.19;5014847;28;20076;-62
2022/03/02 09:17:25;;;;;;;12.80;2.60;;;;;;;6.93;95.85;101004.44;4996423;28;20124;-59
2022/03/02 09:19:54;;;;;;;8.60;2.00;;;;;;;6.94;95.91;101002.47;5015925;28;20409;-59
2022/03/02 09:22:22;;;;;;;7.57;3.13;;;;;;;6.93;96.10;101000.88;4997188;28;20044;-63
2022/03/02 09:24:50;;;;;;;15.07;3.17;;;;;;;6.94;96.27;100996.97;5008813;28;20539;-62
2022/03/02 09:27:20;;;;;;;4.70;2.08;;;;;;;6.93;96.20;100998.94;5011330;28;20057;-61
2022/03/02 09:29:57;;;;;;;6.57;2.03;;;;;;;6.89;96.72;100986.09;5013889;28;20036;-60
2022/03/02 09:32:31;;;;;;;8.38;1.90;;;;;;;6.90;97.08;100988.53;4979643;28;20045;-58
2022/03/02 09:35:02;;;;;;;6.50;1.90;;;;;;;6.91;96.96;100983.88;4995925;28;20096;-58
2022/03/02 09:37:36;;;;;;;9.87;2.47;;;;;;;6.92;96.90;100979.97;4995728;28;20044;-59
2022/03/02 09:40:07;;;;;;;6.05;1.95;;;;;;;6.94;96.46;100977.69;5015972;28;20038;-58
2022/03/02 09:42:53;;;;;;;9.63;2.20;;;;;;;6.94;96.43;100980.44;5013144;28;20038;-59
2022/03/02 09:45:25;;;;;;;11.13;1.90;;;;;;;6.96;97.04;100980.97;4997174;28;20506;-61
2022/03/02 09:47:57;;;;;;;7.60;2.17;;;;;;;6.97;96.61;100979.81;5014294;28;20510;-60
2022/03/02 09:50:31;;;;;;;12.90;2.50;;;;;;;6.96;96.57;100975.47;5014032;28;20069;-59
2022/03/02 09:53:07;;;;;;;7.93;1.80;;;;;;;6.94;97.20;100964.75;5016329;28;20095;-54
2022/03/02 09:55:41;;;;;;;11.23;2.30;;;;;;;6.96;96.97;100967.22;5008358;28;20673;-56
2022/03/02 09:58:13;;;;;;;5.85;1.90;;;;;;;6.97;96.54;100963.31;5017352;28;20382;-56
2022/03/02 10:00:46;;;;;;;7.05;1.83;;;;;;;6.95;97.24;100949.88;5017915;28;20045;-59
2022/03/02 10:03:18;;;;;;;6.93;1.80;;;;;;;6.95;97.32;100947.13;5018516;28;20071;-59
2022/03/02 10:05:53;;;;;;;8.20;2.28;;;;;;;6.98;97.16;100949.25;5018440;28;20047;-56
2022/03/02 10:08:30;;;;;;;8.18;2.45;;;;;;;6.98;97.36;100949.25;5017690;28;20429;-57
2022/03/02 10:11:05;;;;;;;5.18;2.15;;;;;;;7.00;97.01;100951.69;5018093;28;20270;-61
2022/03/02 10:13:35;;;;;;;10.45;2.33;;;;;;;7.00;97.36;100941.47;5012942;28;20407;-61
2022/03/02 10:16:04;;;;;;;9.40;2.00;;;;;;;7.00;97.80;100938.72;5015718;28;20049;-62
2022/03/02 10:18:34;;;;;;;8.60;2.22;;;;;;;7.03;97.60;100937.28;4999264;28;20103;-58
2022/03/02 10:21:05;;;;;;;7.90;2.10;;;;;;;7.03;98.06;100931.78;5018256;28;20053;-59
2022/03/02 10:23:37;;;;;;;11.70;2.60;;;;;;;7.03;97.78;100929.84;5017984;28;20049;-59
2022/03/02 10:26:18;;;;;;;;;;;;;;;7.01;99.27;100915.59;5016833;28;20110;-61
2022/03/02 10:29:06;;;;;;;12.13;2.65;;;;;;;7.02;97.72;100922.69;4998105;28;20455;-63
2022/03/02 10:31:40;;;;;;;8.68;2.17;;;;;;;7.03;98.49;100912.50;5017005;28;20049;-57
2022/03/02 10:34:16;;;;;;;6.13;2.45;;;;;;;7.04;98.50;100914.94;5016642;28;20085;-62
2022/03/02 10:36:50;;;;;;;17.02;3.08;;;;;;;7.06;98.07;100907.19;5015575;28;20065;-61
2022/03/02 10:39:46;;;;;;;14.82;2.63;;;;;;;7.07;98.66;100899.75;4999502;28;20057;-59
2022/03/02 10:42:20;;;;;;;12.40;3.50;;;;;;;7.08;98.37;100901.34;4994057;28;20069;-58
2022/03/02 10:45:11;;;;;;;18.73;3.50;;;;;;;7.09;98.36;100884.53;5014918;28;20047;-57
2022/03/02 10:47:57;;;;;;;6.70;2.20;;;;;;;7.11;98.17;100881.44;4998036;28;20136;-60
2022/03/02 10:50:34;;;;;;;14.85;3.28;;;;;;;7.12;98.68;100866.56;4995604;28;20045;-60
2022/03/02 10:53:04;;;;;;;11.52;3.10;;;;;;;7.14;98.32;100869.81;5018741;28;20039;-54
2022/03/02 10:55:34;;;;;;;12.75;3.28;;;;;;;7.14;98.68;100854.09;5016261;28;20132;-58
2022/03/02 10:58:05;;;;;;;9.02;2.92;;;;;;;7.15;98.55;100846.63;5016385;28;20125;-57
2022/03/02 11:01:37;;;;;;;10.35;2.58;;;;;;;7.18;98.36;100843.25;5007064;28;20078;-54
2022/03/02 11:04:08;;;;;;;12.97;2.70;;;;;;;7.18;99.18;100841.31;5026419;28;20085;-56
2022/03/02 11:07:16;;;;;;;19.80;3.17;;;;;;;7.19;99.72;100839.38;5025572;28;20030;-53
2022/03/02 11:10:01;;;;;;;14.43;2.80;;;;;;;7.22;99.21;100828.53;5024953;28;20148;-51
2022/03/02 11:13:13;;;;;;;11.40;3.10;;;;;;;7.23;100.00;100810.03;5023177;28;20132;-59
2022/03/02 11:20:29;;;;;;;15.07;3.13;;;;;;;7.26;100.00;100817.66;5022178;28;20045;-55
2022/03/02 11:28:39;;;;;;;11.50;2.92;;;;;;;7.31;100.00;100803.75;5024715;28;20095;-55
2022/03/02 11:31:08;;;;;;;13.45;2.53;;;;;;;7.31;100.00;100799.06;5024403;28;20053;-59
2022/03/02 11:33:43;;;;;;;9.27;2.15;;;;;;;7.33;100.00;100804.25;5023499;28;20454;-58
2022/03/02 11:36:12;;;;;;;9.13;2.90;;;;;;;7.36;100.00;100806.34;5023937;28;20045;-57
2022/03/02 11:43:50;;;;;;;16.30;2.50;;;;;;;7.32;100.00;100799.88;5025448;28;20550;-56
2022/03/02 11:51:07;;;;;;;14.05;3.15;;;;;;;7.33;100.00;100791.28;5018278;28;20300;-61
2022/03/02 11:53:39;;;;;;;15.00;3.38;;;;;;;7.38;100.00;100790.31;5021655;28;20045;-57
2022/03/02 12:01:26;;;;;;;15.80;2.90;;;;;;;7.38;100.00;100779.31;5022672;28;20107;-57
2022/03/02 12:04:29;;;;;;;14.07;3.08;;;;;;;7.39;100.00;100760.84;5005796;28;20056;-57
2022/03/02 12:06:57;;;;;;;12.95;3.03;;;;;;;7.40;100.00;100767.97;5005433;28;20041;-59